createdAt,value
2022-08-17T00:00:44.086Z,21.83
2022-08-17T00:03:15.201Z,21.81
2022-08-17T00:06:04.052Z,21.80
2022-08-17T00:08:38.319Z,21.76
2022-08-17T00:11:09.805Z,21.74
2022-08-17T00:13:42.716Z,21.73
2022-08-17T00:16:15.250Z,21.70
2022-08-17T00:19:01.732Z,21.63
2022-08-17T00:22:31.003Z,21.53
2022-08-17T00:24:20.682Z,21.51
2022-08-17T00:26:48.494Z,21.47
2022-08-17T00:29:19.855Z,21.40
2022-08-17T00:31:49.488Z,21.34
2022-08-17T00:34:17.638Z,21.26
2022-08-17T00:36:45.473Z,21.27
2022-08-17T00:39:13.180Z,21.29
2022-08-17T00:41:42.500Z,21.32
2022-08-17T00:44:12.412Z,21.32
2022-08-17T00:46:42.446Z,21.34
2022-08-17T00:49:12.650Z,21.37
2022-08-17T00:51:40.364Z,21.39
2022-08-17T00:54:23.454Z,21.36
2022-08-17T00:56:56.991Z,21.33
2022-08-17T00:59:33.095Z,21.27
2022-08-17T01:02:02.735Z,21.17
2022-08-17T01:04:33.491Z,21.09
2022-08-17T01:07:02.671Z,21.05
2022-08-17T01:09:31.639Z,21.07
2022-08-17T01:12:00.238Z,21.11
2022-08-17T01:14:27.964Z,21.11
2022-08-17T01:16:56.281Z,21.10
2022-08-17T01:19:28.869Z,21.10
2022-08-17T01:22:11.780Z,21.11
2022-08-17T01:24:43.848Z,21.04
2022-08-17T01:27:13.904Z,21.06
2022-08-17T01:29:45.550Z,21.02
2022-08-17T01:32:13.422Z,20.99
2022-08-17T01:34:43.962Z,21.00
2022-08-17T01:37:27.748Z,20.97
2022-08-17T01:40:01.298Z,20.99
2022-08-17T01:42:54.861Z,20.97
2022-08-17T01:45:30.499Z,20.96
2022-08-17T01:47:58.740Z,20.96
2022-08-17T01:50:31.989Z,20.93
2022-08-17T01:53:04.368Z,20.86
2022-08-17T01:55:38.204Z,20.79
2022-08-17T01:58:09.862Z,20.76
2022-08-17T02:00:59.610Z,20.77
2022-08-17T02:03:29.772Z,20.81
2022-08-17T02:05:58.313Z,20.80
2022-08-17T02:08:36.869Z,20.76
2022-08-17T02:11:12.344Z,20.78
2022-08-17T02:13:40.517Z,20.79
2022-08-17T02:16:08.225Z,20.75
2022-08-17T02:18:36.143Z,20.73
2022-08-17T02:21:03.991Z,20.74
2022-08-17T02:23:35.601Z,20.73
2022-08-17T02:26:03.643Z,20.72
2022-08-17T02:28:31.904Z,20.71
2022-08-17T02:31:06.183Z,20.70
2022-08-17T02:33:42.730Z,20.70
2022-08-17T02:36:13.194Z,20.68
2022-08-17T02:38:42.332Z,20.64
2022-08-17T02:41:10.403Z,20.60
2022-08-17T02:43:38.153Z,20.58
2022-08-17T02:46:05.958Z,20.53
2022-08-17T02:48:33.617Z,20.51
2022-08-17T02:51:01.749Z,20.49
2022-08-17T02:53:35.888Z,20.48
2022-08-17T02:56:04.587Z,20.46
2022-08-17T02:58:34.930Z,20.39
2022-08-17T03:01:05.842Z,20.35
2022-08-17T03:03:34.798Z,20.34
2022-08-17T03:06:03.308Z,20.30
2022-08-17T03:08:31.682Z,20.29
2022-08-17T03:10:59.676Z,20.27
2022-08-17T03:13:27.638Z,20.30
2022-08-17T03:15:55.642Z,20.32
2022-08-17T03:18:25.684Z,20.31
2022-08-17T03:20:56.255Z,20.30
2022-08-17T03:23:25.575Z,20.28
2022-08-17T03:25:54.529Z,20.26
2022-08-17T03:28:23.695Z,20.25
2022-08-17T03:30:52.230Z,20.24
2022-08-17T03:33:19.985Z,20.21
2022-08-17T03:35:48.096Z,20.20
2022-08-17T03:38:17.503Z,20.18
2022-08-17T03:40:56.290Z,20.17
2022-08-17T03:43:29.086Z,20.20
2022-08-17T03:46:34.722Z,20.16
2022-08-17T03:49:26.792Z,20.12
2022-08-17T03:52:14.652Z,20.11
2022-08-17T03:55:19.242Z,20.09
2022-08-17T03:57:47.121Z,20.11
2022-08-17T04:00:15.688Z,20.12
2022-08-17T04:02:43.602Z,20.13
2022-08-17T04:05:11.292Z,20.18
2022-08-17T04:07:38.978Z,20.21
2022-08-17T04:10:07.807Z,20.27
2022-08-17T04:13:05.011Z,20.30
2022-08-17T04:15:33.767Z,20.39
2022-08-17T04:18:01.616Z,20.43
2022-08-17T04:20:29.542Z,20.58
2022-08-17T04:23:06.643Z,20.92
2022-08-17T04:25:36.944Z,21.22
2022-08-17T04:28:12.527Z,21.03
2022-08-17T04:30:45.680Z,21.29
2022-08-17T04:33:19.433Z,21.42
2022-08-17T04:35:50.448Z,21.37
2022-08-17T04:38:21.560Z,21.55
2022-08-17T04:41:08.841Z,21.46
2022-08-17T04:43:38.945Z,21.86
2022-08-17T04:46:12.613Z,21.97
2022-08-17T04:48:49.117Z,21.81
2022-08-17T04:51:24.703Z,21.71
2022-08-17T04:53:55.970Z,21.55
2022-08-17T04:56:25.972Z,21.48
2022-08-17T04:58:57.139Z,21.48
2022-08-17T05:01:26.361Z,21.47
2022-08-17T05:03:56.542Z,21.49
2022-08-17T05:06:24.952Z,21.56
2022-08-17T05:08:53.692Z,21.58
2022-08-17T05:11:22.641Z,21.63
2022-08-17T05:13:50.499Z,21.71
2022-08-17T05:16:20.383Z,21.74
2022-08-17T05:18:48.074Z,21.73
2022-08-17T05:21:16.737Z,21.83
2022-08-17T05:23:45.493Z,21.96
2022-08-17T05:26:25.897Z,22.21
2022-08-17T05:28:56.591Z,22.28
2022-08-17T05:31:26.675Z,22.44
2022-08-17T05:33:54.451Z,22.51
2022-08-17T05:36:37.966Z,22.70
2022-08-17T05:39:14.376Z,22.73
2022-08-17T05:41:48.381Z,22.79
2022-08-17T05:44:17.178Z,22.85
2022-08-17T05:46:50.167Z,22.93
2022-08-17T05:49:25.266Z,23.02
2022-08-17T05:52:03.477Z,23.08
2022-08-17T05:54:44.877Z,23.08
2022-08-17T05:57:53.012Z,23.14
2022-08-17T06:00:45.776Z,23.15
2022-08-17T06:03:33.212Z,23.28
2022-08-17T06:06:36.068Z,23.39
2022-08-17T06:09:36.074Z,23.52
2022-08-17T06:12:30.265Z,23.67
2022-08-17T06:15:24.956Z,23.71
2022-08-17T06:17:58.819Z,23.73
2022-08-17T06:20:32.678Z,23.91
2022-08-17T06:23:08.454Z,24.04
2022-08-17T06:25:49.692Z,24.20
2022-08-17T06:28:30.291Z,24.30
2022-08-17T06:31:07.060Z,24.36
2022-08-17T06:33:40.007Z,24.34
2022-08-17T06:36:32.255Z,24.44
2022-08-17T06:39:05.343Z,24.57
2022-08-17T06:41:37.993Z,24.61
2022-08-17T06:44:50.135Z,24.72
2022-08-17T06:47:51.804Z,24.76
2022-08-17T06:50:40.114Z,24.86
2022-08-17T06:53:35.170Z,25.11
2022-08-17T06:56:08.868Z,25.32
2022-08-17T06:58:40.402Z,25.38
2022-08-17T07:01:17.963Z,25.40
2022-08-17T07:04:13.773Z,25.46
2022-08-17T07:06:52.888Z,25.57
2022-08-17T07:09:40.804Z,25.79
2022-08-17T07:12:16.300Z,25.86
2022-08-17T07:14:59.812Z,25.94
2022-08-17T07:17:57.735Z,26.08
2022-08-17T07:20:20.641Z,26.33
2022-08-17T07:23:17.558Z,26.45
2022-08-17T07:25:45.198Z,26.70
2022-08-17T07:28:13.111Z,26.93
2022-08-17T07:31:01.108Z,27.08
2022-08-17T07:33:31.037Z,27.12
2022-08-17T07:35:59.447Z,27.38
2022-08-17T07:38:30.872Z,27.54
2022-08-17T07:41:04.903Z,27.53
2022-08-17T07:43:45.739Z,27.55
2022-08-17T07:46:35.467Z,27.70
2022-08-17T07:49:09.275Z,27.75
2022-08-17T07:51:52.904Z,27.78
2022-08-17T07:54:23.932Z,27.80
2022-08-17T07:56:56.434Z,27.90
2022-08-17T07:59:26.366Z,27.92
2022-08-17T08:01:58.183Z,27.85
2022-08-17T08:05:00.577Z,27.89
2022-08-17T08:07:34.817Z,28.12
2022-08-17T08:10:27.642Z,28.07
2022-08-17T08:13:15.266Z,28.18
2022-08-17T08:15:53.719Z,28.37
2022-08-17T08:18:53.803Z,28.41
2022-08-17T08:22:10.764Z,28.41
2022-08-17T08:24:51.469Z,28.43
2022-08-17T08:28:03.497Z,28.54
2022-08-17T08:30:38.670Z,28.67
2022-08-17T08:33:38.642Z,28.68
2022-08-17T08:37:12.551Z,28.82
2022-08-17T08:39:42.232Z,29.00
2022-08-17T08:42:37.766Z,29.07
2022-08-17T08:45:24.818Z,29.07
2022-08-17T08:48:53.786Z,29.12
2022-08-17T08:51:55.682Z,29.21
2022-08-17T08:54:39.093Z,29.32
2022-08-17T08:57:26.840Z,29.38
2022-08-17T09:00:07.031Z,29.49
2022-08-17T09:02:56.308Z,29.66
2022-08-17T09:05:45.572Z,29.61
2022-08-17T09:08:29.675Z,29.64
2022-08-17T09:12:02.140Z,29.64
2022-08-17T09:14:46.824Z,29.70
2022-08-17T09:17:21.248Z,29.75
2022-08-17T09:19:54.849Z,29.79
2022-08-17T09:22:30.522Z,29.85
2022-08-17T09:25:12.178Z,29.97
2022-08-17T09:27:46.427Z,30.06
2022-08-17T09:30:15.068Z,30.18
2022-08-17T09:32:52.156Z,30.31
2022-08-17T09:35:32.891Z,30.35
2022-08-17T09:38:19.774Z,30.25
2022-08-17T09:41:15.556Z,30.23
2022-08-17T09:44:02.570Z,30.31
2022-08-17T09:46:43.632Z,30.45
2022-08-17T09:49:31.392Z,30.57
2022-08-17T09:52:19.699Z,30.65
2022-08-17T09:54:51.023Z,30.75
2022-08-17T09:57:53.259Z,30.85
2022-08-17T10:00:33.241Z,30.81
2022-08-17T10:03:34.394Z,30.93
2022-08-17T10:06:13.343Z,30.99
2022-08-17T10:09:06.534Z,31.10
2022-08-17T10:12:25.179Z,31.11
2022-08-17T10:15:22.585Z,30.77
2022-08-17T10:18:08.915Z,30.49
2022-08-17T10:20:45.665Z,30.33
2022-08-17T10:23:42.461Z,30.64
2022-08-17T10:26:20.174Z,30.83
2022-08-17T10:29:06.753Z,31.00
2022-08-17T10:31:51.827Z,31.09
2022-08-17T10:35:00.003Z,30.90
2022-08-17T10:37:59.929Z,30.86
2022-08-17T10:40:34.041Z,31.13
2022-08-17T10:43:42.181Z,31.27
2022-08-17T10:46:43.948Z,31.11
2022-08-17T10:49:17.383Z,30.78
2022-08-17T10:51:48.656Z,30.76
2022-08-17T10:54:25.436Z,30.85
2022-08-17T10:56:55.369Z,30.90
2022-08-17T10:59:35.411Z,31.12
2022-08-17T11:02:23.276Z,31.19
2022-08-17T11:05:07.815Z,31.23
2022-08-17T11:07:35.420Z,31.25
2022-08-17T11:10:37.955Z,31.34
2022-08-17T11:13:29.955Z,31.26
2022-08-17T11:16:09.965Z,31.24
2022-08-17T11:18:59.190Z,31.19
2022-08-17T11:21:59.083Z,31.27
2022-08-17T11:24:40.042Z,31.39
2022-08-17T11:27:13.867Z,31.48
2022-08-17T11:29:56.752Z,31.47
2022-08-17T11:32:54.460Z,31.47
2022-08-17T11:35:22.546Z,31.51
2022-08-17T11:38:16.625Z,31.57
2022-08-17T11:40:50.409Z,31.38
2022-08-17T11:43:45.684Z,31.27
2022-08-17T11:46:24.284Z,31.23
2022-08-17T11:49:38.659Z,31.38
2022-08-17T11:52:33.565Z,31.57
2022-08-17T11:55:17.976Z,31.51
2022-08-17T11:58:00.969Z,31.25
2022-08-17T12:00:47.345Z,31.01
2022-08-17T12:03:43.267Z,31.08
2022-08-17T12:06:41.385Z,31.25
2022-08-17T12:09:21.086Z,31.43
2022-08-17T12:12:19.597Z,31.52
2022-08-17T12:15:11.407Z,31.52
2022-08-17T12:17:42.998Z,31.65
2022-08-17T12:20:32.366Z,31.57
2022-08-17T12:23:21.184Z,31.68
2022-08-17T12:25:59.759Z,31.69
2022-08-17T12:28:33.841Z,31.67
2022-08-17T12:31:05.847Z,31.61
2022-08-17T12:33:37.161Z,31.56
2022-08-17T12:36:08.743Z,31.60
2022-08-17T12:38:38.322Z,31.57
2022-08-17T12:41:28.618Z,31.65
2022-08-17T12:44:13.410Z,31.61
2022-08-17T12:46:56.253Z,31.69
2022-08-17T12:49:32.870Z,31.82
2022-08-17T12:52:14.364Z,31.88
2022-08-17T12:54:56.206Z,31.91
2022-08-17T12:57:33.221Z,32.05
2022-08-17T13:00:08.351Z,32.05
2022-08-17T13:02:57.908Z,32.01
2022-08-17T13:05:31.459Z,32.06
2022-08-17T13:08:00.074Z,32.04
2022-08-17T13:10:33.113Z,32.09
2022-08-17T13:13:19.534Z,32.05
2022-08-17T13:15:59.633Z,32.18
2022-08-17T13:18:36.260Z,32.22
2022-08-17T13:21:05.524Z,31.97
2022-08-17T13:23:33.402Z,31.98
2022-08-17T13:26:16.029Z,32.21
2022-08-17T13:28:50.161Z,32.17
2022-08-17T13:31:30.232Z,32.26
2022-08-17T13:34:29.404Z,32.37
2022-08-17T13:37:18.939Z,32.34
2022-08-17T13:39:49.588Z,32.41
2022-08-17T13:42:53.028Z,32.42
2022-08-17T13:45:50.864Z,32.51
2022-08-17T13:48:32.797Z,32.48
2022-08-17T13:51:00.535Z,32.42
2022-08-17T13:53:37.477Z,32.43
2022-08-17T13:56:33.185Z,32.38
2022-08-17T13:59:11.296Z,32.44
2022-08-17T14:01:52.568Z,32.46
2022-08-17T14:04:25.272Z,32.47
2022-08-17T14:07:15.487Z,32.43
2022-08-17T14:09:54.707Z,32.51
2022-08-17T14:12:25.155Z,32.52
2022-08-17T14:14:55.469Z,32.61
2022-08-17T14:17:24.679Z,32.65
2022-08-17T14:19:52.703Z,32.70
2022-08-17T14:22:28.533Z,32.64
2022-08-17T14:24:59.588Z,32.59
2022-08-17T14:27:28.302Z,32.62
2022-08-17T14:29:56.492Z,32.67
2022-08-17T14:32:28.430Z,32.68
2022-08-17T14:34:57.816Z,32.63
2022-08-17T14:37:28.187Z,32.63
2022-08-17T14:39:58.670Z,32.65
2022-08-17T14:42:29.730Z,32.68
2022-08-17T14:45:06.048Z,32.61
2022-08-17T14:47:35.861Z,32.67
2022-08-17T14:50:06.373Z,32.65
2022-08-17T14:52:36.882Z,32.55
2022-08-17T14:55:06.626Z,32.43
2022-08-17T14:57:34.644Z,32.33
2022-08-17T15:00:04.304Z,32.38
2022-08-17T15:02:43.753Z,32.32
2022-08-17T15:05:13.462Z,32.26
2022-08-17T15:07:41.134Z,32.27
2022-08-17T15:10:09.118Z,32.24
2022-08-17T15:12:36.912Z,32.25
2022-08-17T15:15:06.291Z,32.20
2022-08-17T15:17:45.126Z,32.15
2022-08-17T15:20:17.899Z,32.21
2022-08-17T15:22:49.928Z,32.27
2022-08-17T15:25:19.247Z,32.26
2022-08-17T15:27:47.704Z,32.22
2022-08-17T15:30:16.656Z,32.28
2022-08-17T15:32:50.761Z,32.26
2022-08-17T15:35:27.442Z,32.22
2022-08-17T15:38:11.144Z,32.25
2022-08-17T15:40:43.661Z,32.30
2022-08-17T15:43:23.280Z,32.29
2022-08-17T15:46:02.538Z,32.26
2022-08-17T15:48:42.357Z,32.19
2022-08-17T15:51:12.048Z,32.16
2022-08-17T15:53:42.297Z,32.20
2022-08-17T15:56:11.460Z,32.18
2022-08-17T15:58:41.907Z,32.22
2022-08-17T16:01:16.983Z,32.20
2022-08-17T16:04:04.262Z,32.13
2022-08-17T16:06:35.302Z,32.08
2022-08-17T16:09:03.033Z,31.98
2022-08-17T16:11:30.721Z,31.92
2022-08-17T16:13:58.366Z,31.87
2022-08-17T16:16:29.048Z,31.82
2022-08-17T16:18:58.660Z,31.79
2022-08-17T16:21:27.536Z,31.81
2022-08-17T16:24:06.857Z,31.80
2022-08-17T16:26:41.216Z,31.78
2022-08-17T16:29:09.353Z,31.77
2022-08-17T16:31:37.850Z,31.78
2022-08-17T16:34:17.069Z,31.79
2022-08-17T16:36:51.709Z,31.78
2022-08-17T16:39:29.263Z,31.76
2022-08-17T16:41:57.595Z,31.73
2022-08-17T16:44:29.056Z,31.71
2022-08-17T16:46:57.532Z,31.70
2022-08-17T16:49:36.762Z,31.70
2022-08-17T16:52:10.638Z,31.69
2022-08-17T16:54:43.836Z,31.68
2022-08-17T16:57:13.092Z,31.68
2022-08-17T16:59:43.933Z,31.67
2022-08-17T17:02:23.692Z,31.65
2022-08-17T17:05:14.553Z,31.63
2022-08-17T17:08:04.044Z,31.58
2022-08-17T17:10:48.393Z,31.51
2022-08-17T17:13:41.322Z,31.44
2022-08-17T17:16:26.394Z,31.38
2022-08-17T17:19:27.887Z,31.29
2022-08-17T17:22:20.327Z,31.22
2022-08-17T17:25:12.374Z,31.15
2022-08-17T17:27:55.794Z,31.10
2022-08-17T17:30:53.175Z,31.05
2022-08-17T17:33:29.110Z,30.99
2022-08-17T17:36:06.980Z,30.90
2022-08-17T17:38:43.099Z,30.82
2022-08-17T17:41:25.369Z,30.75
2022-08-17T17:44:17.890Z,30.66
2022-08-17T17:46:55.287Z,30.58
2022-08-17T17:49:24.772Z,30.46
2022-08-17T17:52:09.938Z,30.29
2022-08-17T17:55:03.038Z,30.08
2022-08-17T17:57:46.961Z,29.91
2022-08-17T18:00:23.738Z,29.76
2022-08-17T18:03:03.677Z,29.64
2022-08-17T18:05:37.437Z,29.52
2022-08-17T18:08:37.822Z,29.46
2022-08-17T18:11:35.400Z,29.33
2022-08-17T18:14:23.575Z,29.19
2022-08-17T18:16:57.741Z,29.09
2022-08-17T18:19:28.085Z,28.97
2022-08-17T18:22:14.474Z,28.88
2022-08-17T18:24:45.222Z,28.83
2022-08-17T18:27:34.637Z,28.77
2022-08-17T18:30:14.489Z,28.72
2022-08-17T18:32:46.437Z,28.60
2022-08-17T18:35:14.383Z,28.48
2022-08-17T18:37:51.647Z,28.40
2022-08-17T18:40:19.731Z,28.28
2022-08-17T18:42:50.330Z,28.20
2022-08-17T18:45:38.676Z,28.14
2022-08-17T18:48:19.690Z,28.09
2022-08-17T18:50:48.258Z,28.08
2022-08-17T18:53:34.766Z,28.02
2022-08-17T18:56:30.558Z,27.91
2022-08-17T18:59:16.907Z,27.81
2022-08-17T19:02:03.229Z,27.79
2022-08-17T19:04:36.891Z,27.75
2022-08-17T19:07:26.677Z,27.66
2022-08-17T19:10:06.940Z,27.54
2022-08-17T19:12:43.128Z,27.46
2022-08-17T19:15:13.851Z,27.36
2022-08-17T19:17:53.007Z,27.24
2022-08-17T19:20:37.970Z,27.13
2022-08-17T19:23:15.501Z,27.08
2022-08-17T19:25:49.284Z,27.08
2022-08-17T19:28:27.320Z,27.03
2022-08-17T19:31:16.616Z,26.97
2022-08-17T19:33:47.830Z,26.95
2022-08-17T19:36:21.973Z,26.97
2022-08-17T19:39:38.347Z,26.96
2022-08-17T19:42:28.434Z,26.93
2022-08-17T19:45:15.863Z,26.88
2022-08-17T19:47:55.348Z,26.86
2022-08-17T19:50:47.333Z,26.80
2022-08-17T19:53:19.712Z,26.73
2022-08-17T19:56:04.529Z,26.67
2022-08-17T19:59:03.803Z,26.63
2022-08-17T20:01:44.896Z,26.62
2022-08-17T20:04:32.311Z,26.54
2022-08-17T20:07:06.261Z,26.51
2022-08-17T20:09:40.152Z,26.50
2022-08-17T20:12:14.284Z,26.44
2022-08-17T20:14:53.267Z,26.40
2022-08-17T20:17:39.495Z,26.32
2022-08-17T20:20:49.438Z,26.27
2022-08-17T20:23:48.904Z,26.21
2022-08-17T20:26:26.968Z,26.19
2022-08-17T20:29:09.001Z,26.18
2022-08-17T20:31:47.388Z,26.15
2022-08-17T20:34:30.966Z,26.13
2022-08-17T20:37:09.709Z,26.13
2022-08-17T20:39:44.536Z,26.06
2022-08-17T20:42:21.160Z,26.05
2022-08-17T20:45:03.074Z,26.01
2022-08-17T20:48:01.167Z,26.01
2022-08-17T20:51:11.805Z,26.00
2022-08-17T20:53:49.276Z,25.97
2022-08-17T20:56:45.198Z,25.95
2022-08-17T20:59:30.363Z,25.93
2022-08-17T21:02:17.630Z,25.87
2022-08-17T21:04:56.338Z,25.82
2022-08-17T21:07:32.979Z,25.78
2022-08-17T21:10:26.212Z,25.67
2022-08-17T21:13:01.048Z,25.61
2022-08-17T21:15:53.530Z,25.56
2022-08-17T21:19:16.984Z,25.52
2022-08-17T21:21:50.333Z,25.45
2022-08-17T21:24:55.249Z,25.43
2022-08-17T21:27:48.743Z,25.39
2022-08-17T21:30:33.555Z,25.32
2022-08-17T21:33:18.689Z,25.25
2022-08-17T21:35:59.935Z,25.23
2022-08-17T21:38:35.900Z,25.27
2022-08-17T21:41:04.285Z,25.29
2022-08-17T21:43:36.497Z,25.27
2022-08-17T21:46:20.808Z,25.22
2022-08-17T21:48:54.391Z,25.20
2022-08-17T21:51:30.201Z,25.09
2022-08-17T21:54:01.576Z,24.99
2022-08-17T21:56:35.514Z,24.92
2022-08-17T21:59:07.853Z,24.91
2022-08-17T22:01:40.969Z,24.94
2022-08-17T22:04:11.631Z,24.96
2022-08-17T22:06:43.181Z,24.99
2022-08-17T22:09:41.371Z,24.99
2022-08-17T22:12:12.874Z,24.97
2022-08-17T22:14:57.060Z,24.93
2022-08-17T22:17:28.858Z,24.87
2022-08-17T22:19:59.755Z,24.79
2022-08-17T22:22:56.113Z,24.77
2022-08-17T22:25:27.114Z,24.79
2022-08-17T22:28:01.119Z,24.79
2022-08-17T22:30:31.407Z,24.75
2022-08-17T22:33:01.399Z,24.72
2022-08-17T22:35:29.002Z,24.69
2022-08-17T22:37:57.341Z,24.61
2022-08-17T22:40:31.929Z,24.63
2022-08-17T22:43:03.562Z,24.67
2022-08-17T22:45:33.529Z,24.68
2022-08-17T22:48:02.245Z,24.68
2022-08-17T22:50:33.257Z,24.63
2022-08-17T22:53:31.793Z,24.53
2022-08-17T22:56:18.140Z,24.42
2022-08-17T22:59:11.983Z,24.40
2022-08-17T23:01:41.811Z,24.37
2022-08-17T23:04:13.023Z,24.33
2022-08-17T23:06:44.233Z,24.32
2022-08-17T23:09:11.908Z,24.27
2022-08-17T23:11:49.964Z,24.19
2022-08-17T23:14:20.284Z,24.17
2022-08-17T23:16:50.324Z,24.16
2022-08-17T23:19:21.501Z,24.17
2022-08-17T23:21:52.541Z,24.15
2022-08-17T23:24:25.901Z,24.18
2022-08-17T23:26:57.314Z,24.18
2022-08-17T23:29:29.696Z,24.19
2022-08-17T23:31:59.931Z,24.19
2022-08-17T23:34:28.782Z,24.17
2022-08-17T23:36:56.595Z,24.13
2022-08-17T23:39:28.020Z,24.06
2022-08-17T23:42:01.536Z,24.02
2022-08-17T23:44:31.055Z,24.01
2022-08-17T23:46:58.742Z,23.98
2022-08-17T23:49:26.719Z,23.94
2022-08-17T23:51:55.239Z,23.91
2022-08-17T23:54:43.803Z,23.87
2022-08-17T23:57:14.674Z,23.77
2022-08-17T23:59:44.110Z,23.74
